Terminal Aerodrome Forecast
Issued by NWS

Home | Current Version | Previous Version | Text Only | Print | Product List | Glossary On
Versions: 1 2 3 4 5 6 7 8 9 10 11 12 13 14 15 16 17 18 19 20 21 22 23 24 25 26 27 28 29 30 31 32 33 34
000
FTAK31 PANC 190534
TAFAAQ
TAF
PAAQ 190534Z 1906/2006 14015G27KT P6SM SCT050 BKN100
     FM191400 15010G20KT P6SM -RA BKN050 OVC100
     FM191700 13025G38KT P6SM SCT070=

USA.gov is the U.S. government's official web portal to all federal, state and local government web resources and services.